sensor_id;sensor_type;location;lat;lon;timestamp;P1;durP1;ratioP1;P2;durP2;ratioP2
735;SDS011;352;48.626;9.238;2022-12-18T00:00:43;51.15;;;35.88;;
735;SDS011;352;48.626;9.238;2022-12-18T00:03:11;49.03;;;34.08;;
735;SDS011;352;48.626;9.238;2022-12-18T00:05:45;51.92;;;33.25;;
735;SDS011;352;48.626;9.238;2022-12-18T00:08:12;46.75;;;31.77;;
735;SDS011;352;48.626;9.238;2022-12-18T00:10:39;49.22;;;31.67;;
735;SDS011;352;48.626;9.238;2022-12-18T00:13:06;50.70;;;33.15;;
735;SDS011;352;48.626;9.238;2022-12-18T00:15:34;49.58;;;33.40;;
735;SDS011;352;48.626;9.238;2022-12-18T00:18:01;47.85;;;31.35;;
735;SDS011;352;48.626;9.238;2022-12-18T00:20:28;48.78;;;32.85;;
735;SDS011;352;48.626;9.238;2022-12-18T00:22:55;48.80;;;32.05;;
735;SDS011;352;48.626;9.238;2022-12-18T00:25:22;50.72;;;32.33;;
735;SDS011;352;48.626;9.238;2022-12-18T00:27:49;52.78;;;34.20;;
735;SDS011;352;48.626;9.238;2022-12-18T00:30:15;51.35;;;32.53;;
735;SDS011;352;48.626;9.238;2022-12-18T00:32:43;49.53;;;31.42;;
735;SDS011;352;48.626;9.238;2022-12-18T00:35:10;54.75;;;34.22;;
735;SDS011;352;48.626;9.238;2022-12-18T00:37:37;51.83;;;33.05;;
735;SDS011;352;48.626;9.238;2022-12-18T00:40:04;47.83;;;32.38;;
735;SDS011;352;48.626;9.238;2022-12-18T00:42:35;51.00;;;33.03;;
735;SDS011;352;48.626;9.238;2022-12-18T00:45:19;50.40;;;32.10;;
735;SDS011;352;48.626;9.238;2022-12-18T00:47:47;49.22;;;32.65;;
735;SDS011;352;48.626;9.238;2022-12-18T00:50:14;46.88;;;30.88;;
735;SDS011;352;48.626;9.238;2022-12-18T00:52:41;56.45;;;33.85;;
735;SDS011;352;48.626;9.238;2022-12-18T00:55:08;48.58;;;31.65;;
735;SDS011;352;48.626;9.238;2022-12-18T00:57:35;50.00;;;33.75;;
735;SDS011;352;48.626;9.238;2022-12-18T01:00:02;50.60;;;33.45;;
735;SDS011;352;48.626;9.238;2022-12-18T01:02:30;47.25;;;32.25;;
735;SDS011;352;48.626;9.238;2022-12-18T01:04:58;42.40;;;29.90;;
735;SDS011;352;48.626;9.238;2022-12-18T01:07:24;46.90;;;32.33;;
735;SDS011;352;48.626;9.238;2022-12-18T01:09:51;45.00;;;31.42;;
735;SDS011;352;48.626;9.238;2022-12-18T01:12:18;49.38;;;33.22;;
735;SDS011;352;48.626;9.238;2022-12-18T01:14:45;43.97;;;30.20;;
735;SDS011;352;48.626;9.238;2022-12-18T01:17:12;51.50;;;33.78;;
735;SDS011;352;48.626;9.238;2022-12-18T01:19:39;43.53;;;31.13;;
735;SDS011;352;48.626;9.238;2022-12-18T01:22:08;46.30;;;31.42;;
735;SDS011;352;48.626;9.238;2022-12-18T01:24:35;50.50;;;31.20;;
735;SDS011;352;48.626;9.238;2022-12-18T01:27:01;47.58;;;30.50;;
735;SDS011;352;48.626;9.238;2022-12-18T01:29:28;45.45;;;30.63;;
735;SDS011;352;48.626;9.238;2022-12-18T01:31:55;45.65;;;30.40;;
735;SDS011;352;48.626;9.238;2022-12-18T01:34:22;47.33;;;31.58;;
735;SDS011;352;48.626;9.238;2022-12-18T01:36:49;43.92;;;28.85;;
735;SDS011;352;48.626;9.238;2022-12-18T01:39:18;42.22;;;29.75;;
735;SDS011;352;48.626;9.238;2022-12-18T01:41:45;45.00;;;30.55;;
735;SDS011;352;48.626;9.238;2022-12-18T01:44:50;50.80;;;31.50;;
735;SDS011;352;48.626;9.238;2022-12-18T01:47:27;47.00;;;30.63;;
735;SDS011;352;48.626;9.238;2022-12-18T01:49:58;48.92;;;31.38;;
735;SDS011;352;48.626;9.238;2022-12-18T01:52:28;43.80;;;31.05;;
735;SDS011;352;48.626;9.238;2022-12-18T01:54:58;43.42;;;30.17;;
735;SDS011;352;48.626;9.238;2022-12-18T01:57:26;45.30;;;32.83;;
735;SDS011;352;48.626;9.238;2022-12-18T01:59:55;41.15;;;29.40;;
735;SDS011;352;48.626;9.238;2022-12-18T02:02:26;46.92;;;31.92;;
735;SDS011;352;48.626;9.238;2022-12-18T02:04:53;48.60;;;30.98;;
735;SDS011;352;48.626;9.238;2022-12-18T02:07:22;46.70;;;32.17;;
735;SDS011;352;48.626;9.238;2022-12-18T02:09:59;48.20;;;31.65;;
735;SDS011;352;48.626;9.238;2022-12-18T02:12:31;45.75;;;31.40;;
735;SDS011;352;48.626;9.238;2022-12-18T02:15:10;50.25;;;33.17;;
735;SDS011;352;48.626;9.238;2022-12-18T02:17:42;49.60;;;34.63;;
735;SDS011;352;48.626;9.238;2022-12-18T02:20:13;47.53;;;32.67;;
735;SDS011;352;48.626;9.238;2022-12-18T02:22:46;42.33;;;30.60;;
735;SDS011;352;48.626;9.238;2022-12-18T02:25:28;45.28;;;32.67;;
735;SDS011;352;48.626;9.238;2022-12-18T02:28:09;42.58;;;30.75;;
735;SDS011;352;48.626;9.238;2022-12-18T02:30:39;48.05;;;32.33;;
735;SDS011;352;48.626;9.238;2022-12-18T02:33:08;39.90;;;29.05;;
735;SDS011;352;48.626;9.238;2022-12-18T02:35:38;47.05;;;30.27;;
735;SDS011;352;48.626;9.238;2022-12-18T02:38:07;47.97;;;30.58;;
735;SDS011;352;48.626;9.238;2022-12-18T02:40:35;42.63;;;28.98;;
735;SDS011;352;48.626;9.238;2022-12-18T02:43:07;43.55;;;30.73;;
735;SDS011;352;48.626;9.238;2022-12-18T02:45:34;42.28;;;29.25;;
735;SDS011;352;48.626;9.238;2022-12-18T02:48:01;47.33;;;29.63;;
735;SDS011;352;48.626;9.238;2022-12-18T02:50:30;44.42;;;30.00;;
735;SDS011;352;48.626;9.238;2022-12-18T02:53:04;45.95;;;31.75;;
735;SDS011;352;48.626;9.238;2022-12-18T02:55:39;45.00;;;30.88;;
735;SDS011;352;48.626;9.238;2022-12-18T02:58:26;43.10;;;28.38;;
735;SDS011;352;48.626;9.238;2022-12-18T03:01:00;48.55;;;30.33;;
735;SDS011;352;48.626;9.238;2022-12-18T03:03:31;40.53;;;27.45;;
735;SDS011;352;48.626;9.238;2022-12-18T03:06:05;43.35;;;28.27;;
735;SDS011;352;48.626;9.238;2022-12-18T03:08:36;42.00;;;29.42;;
735;SDS011;352;48.626;9.238;2022-12-18T03:11:06;39.13;;;28.08;;
735;SDS011;352;48.626;9.238;2022-12-18T03:13:37;43.67;;;28.55;;
735;SDS011;352;48.626;9.238;2022-12-18T03:16:08;45.90;;;29.67;;
735;SDS011;352;48.626;9.238;2022-12-18T03:18:37;41.58;;;28.73;;
735;SDS011;352;48.626;9.238;2022-12-18T03:21:08;42.20;;;28.83;;
735;SDS011;352;48.626;9.238;2022-12-18T03:23:39;47.67;;;31.70;;
735;SDS011;352;48.626;9.238;2022-12-18T03:26:10;46.22;;;31.90;;
735;SDS011;352;48.626;9.238;2022-12-18T03:28:45;49.58;;;33.47;;
735;SDS011;352;48.626;9.238;2022-12-18T03:31:16;54.75;;;36.42;;
735;SDS011;352;48.626;9.238;2022-12-18T03:33:45;56.38;;;35.85;;
735;SDS011;352;48.626;9.238;2022-12-18T03:36:16;56.83;;;37.30;;
735;SDS011;352;48.626;9.238;2022-12-18T03:38:44;50.83;;;35.42;;
735;SDS011;352;48.626;9.238;2022-12-18T03:41:14;41.95;;;29.80;;
735;SDS011;352;48.626;9.238;2022-12-18T03:43:47;40.50;;;28.33;;
735;SDS011;352;48.626;9.238;2022-12-18T03:46:21;40.30;;;28.73;;
735;SDS011;352;48.626;9.238;2022-12-18T03:48:56;43.40;;;29.42;;
735;SDS011;352;48.626;9.238;2022-12-18T03:51:30;41.78;;;28.52;;
735;SDS011;352;48.626;9.238;2022-12-18T03:54:05;42.97;;;29.60;;
735;SDS011;352;48.626;9.238;2022-12-18T03:56:35;41.17;;;27.63;;
735;SDS011;352;48.626;9.238;2022-12-18T03:59:07;44.08;;;29.20;;
735;SDS011;352;48.626;9.238;2022-12-18T04:01:37;46.22;;;29.33;;
735;SDS011;352;48.626;9.238;2022-12-18T04:04:06;43.63;;;30.63;;
735;SDS011;352;48.626;9.238;2022-12-18T04:06:36;38.92;;;28.33;;
735;SDS011;352;48.626;9.238;2022-12-18T04:09:04;41.72;;;28.23;;
735;SDS011;352;48.626;9.238;2022-12-18T04:11:32;39.53;;;28.67;;
735;SDS011;352;48.626;9.238;2022-12-18T04:13:58;41.75;;;29.35;;
735;SDS011;352;48.626;9.238;2022-12-18T04:16:27;41.13;;;28.38;;
735;SDS011;352;48.626;9.238;2022-12-18T04:18:54;42.08;;;27.70;;
735;SDS011;352;48.626;9.238;2022-12-18T04:21:21;41.53;;;28.17;;
735;SDS011;352;48.626;9.238;2022-12-18T04:23:48;40.40;;;26.65;;
735;SDS011;352;48.626;9.238;2022-12-18T04:26:14;41.97;;;27.15;;
735;SDS011;352;48.626;9.238;2022-12-18T04:28:41;35.00;;;25.95;;
735;SDS011;352;48.626;9.238;2022-12-18T04:31:08;39.63;;;27.17;;
735;SDS011;352;48.626;9.238;2022-12-18T04:33:36;43.25;;;28.48;;
735;SDS011;352;48.626;9.238;2022-12-18T04:36:03;42.60;;;26.80;;
735;SDS011;352;48.626;9.238;2022-12-18T04:38:31;40.22;;;26.98;;
735;SDS011;352;48.626;9.238;2022-12-18T04:40:58;43.10;;;28.90;;
735;SDS011;352;48.626;9.238;2022-12-18T04:43:24;44.20;;;30.10;;
735;SDS011;352;48.626;9.238;2022-12-18T04:45:51;42.35;;;29.40;;
735;SDS011;352;48.626;9.238;2022-12-18T04:48:18;40.55;;;28.33;;
735;SDS011;352;48.626;9.238;2022-12-18T04:50:47;44.38;;;26.67;;
735;SDS011;352;48.626;9.238;2022-12-18T04:53:14;43.63;;;28.75;;
735;SDS011;352;48.626;9.238;2022-12-18T04:55:41;41.97;;;26.55;;
735;SDS011;352;48.626;9.238;2022-12-18T04:58:07;45.63;;;27.77;;
735;SDS011;352;48.626;9.238;2022-12-18T05:00:34;41.00;;;26.83;;
735;SDS011;352;48.626;9.238;2022-12-18T05:03:01;43.15;;;29.02;;
735;SDS011;352;48.626;9.238;2022-12-18T05:05:28;43.05;;;27.00;;
735;SDS011;352;48.626;9.238;2022-12-18T05:07:56;41.92;;;27.25;;
735;SDS011;352;48.626;9.238;2022-12-18T05:10:23;43.67;;;27.70;;
735;SDS011;352;48.626;9.238;2022-12-18T05:12:50;77.82;;;41.85;;
735;SDS011;352;48.626;9.238;2022-12-18T05:15:26;54.55;;;31.80;;
735;SDS011;352;48.626;9.238;2022-12-18T05:17:54;43.88;;;26.77;;
735;SDS011;352;48.626;9.238;2022-12-18T05:20:21;47.75;;;25.92;;
735;SDS011;352;48.626;9.238;2022-12-18T05:22:48;39.72;;;26.30;;
735;SDS011;352;48.626;9.238;2022-12-18T05:25:16;36.30;;;25.10;;
735;SDS011;352;48.626;9.238;2022-12-18T05:27:43;39.28;;;25.65;;
735;SDS011;352;48.626;9.238;2022-12-18T05:30:11;38.53;;;25.95;;
735;SDS011;352;48.626;9.238;2022-12-18T05:32:38;42.45;;;26.23;;
735;SDS011;352;48.626;9.238;2022-12-18T05:35:07;37.88;;;25.63;;
735;SDS011;352;48.626;9.238;2022-12-18T05:37:35;40.97;;;25.60;;
735;SDS011;352;48.626;9.238;2022-12-18T05:40:01;34.85;;;24.73;;
735;SDS011;352;48.626;9.238;2022-12-18T05:42:30;47.58;;;27.55;;
735;SDS011;352;48.626;9.238;2022-12-18T05:44:57;54.08;;;29.13;;
735;SDS011;352;48.626;9.238;2022-12-18T05:47:24;46.80;;;27.40;;
735;SDS011;352;48.626;9.238;2022-12-18T05:49:50;45.63;;;26.15;;
735;SDS011;352;48.626;9.238;2022-12-18T05:52:17;40.78;;;26.75;;
735;SDS011;352;48.626;9.238;2022-12-18T05:54:44;43.00;;;27.65;;
735;SDS011;352;48.626;9.238;2022-12-18T05:57:10;39.95;;;25.10;;
735;SDS011;352;48.626;9.238;2022-12-18T05:59:39;39.03;;;26.05;;
735;SDS011;352;48.626;9.238;2022-12-18T06:02:05;55.88;;;39.28;;
735;SDS011;352;48.626;9.238;2022-12-18T06:04:32;43.22;;;29.63;;
735;SDS011;352;48.626;9.238;2022-12-18T06:06:59;40.75;;;29.80;;
735;SDS011;352;48.626;9.238;2022-12-18T06:09:26;44.00;;;28.70;;
735;SDS011;352;48.626;9.238;2022-12-18T06:11:53;41.90;;;28.38;;
735;SDS011;352;48.626;9.238;2022-12-18T06:14:19;42.10;;;26.15;;
735;SDS011;352;48.626;9.238;2022-12-18T06:16:47;48.03;;;27.48;;
735;SDS011;352;48.626;9.238;2022-12-18T06:19:16;41.47;;;26.02;;
735;SDS011;352;48.626;9.238;2022-12-18T06:21:43;40.35;;;25.88;;
735;SDS011;352;48.626;9.238;2022-12-18T06:24:11;37.97;;;25.80;;
735;SDS011;352;48.626;9.238;2022-12-18T06:26:38;43.20;;;26.83;;
735;SDS011;352;48.626;9.238;2022-12-18T06:29:05;49.33;;;29.02;;
735;SDS011;352;48.626;9.238;2022-12-18T06:31:32;44.28;;;27.50;;
735;SDS011;352;48.626;9.238;2022-12-18T06:34:01;49.35;;;28.40;;
735;SDS011;352;48.626;9.238;2022-12-18T06:36:29;53.22;;;28.90;;
735;SDS011;352;48.626;9.238;2022-12-18T06:38:58;44.38;;;29.92;;
735;SDS011;352;48.626;9.238;2022-12-18T06:41:24;41.28;;;27.55;;
735;SDS011;352;48.626;9.238;2022-12-18T06:43:51;42.53;;;29.73;;
735;SDS011;352;48.626;9.238;2022-12-18T06:46:18;44.95;;;29.85;;
735;SDS011;352;48.626;9.238;2022-12-18T06:48:48;36.72;;;27.90;;
735;SDS011;352;48.626;9.238;2022-12-18T06:51:20;37.85;;;28.38;;
735;SDS011;352;48.626;9.238;2022-12-18T06:53:48;45.90;;;28.23;;
735;SDS011;352;48.626;9.238;2022-12-18T06:56:15;41.05;;;28.13;;
735;SDS011;352;48.626;9.238;2022-12-18T06:58:42;40.83;;;27.88;;
735;SDS011;352;48.626;9.238;2022-12-18T07:01:10;40.80;;;28.10;;
735;SDS011;352;48.626;9.238;2022-12-18T07:03:37;42.67;;;29.15;;
735;SDS011;352;48.626;9.238;2022-12-18T07:06:05;38.90;;;27.05;;
735;SDS011;352;48.626;9.238;2022-12-18T07:08:33;41.95;;;27.27;;
735;SDS011;352;48.626;9.238;2022-12-18T07:11:02;40.50;;;28.88;;
735;SDS011;352;48.626;9.238;2022-12-18T07:13:29;37.42;;;28.60;;
735;SDS011;352;48.626;9.238;2022-12-18T07:16:02;37.33;;;27.42;;
735;SDS011;352;48.626;9.238;2022-12-18T07:18:29;34.22;;;24.70;;
735;SDS011;352;48.626;9.238;2022-12-18T07:20:56;38.50;;;25.65;;
735;SDS011;352;48.626;9.238;2022-12-18T07:23:23;32.55;;;23.90;;
735;SDS011;352;48.626;9.238;2022-12-18T07:25:51;34.53;;;25.23;;
735;SDS011;352;48.626;9.238;2022-12-18T07:28:18;30.48;;;23.42;;
735;SDS011;352;48.626;9.238;2022-12-18T07:30:45;36.53;;;25.75;;
735;SDS011;352;48.626;9.238;2022-12-18T07:33:12;38.20;;;27.00;;
735;SDS011;352;48.626;9.238;2022-12-18T07:35:39;39.67;;;28.38;;
735;SDS011;352;48.626;9.238;2022-12-18T07:38:05;39.60;;;27.35;;
735;SDS011;352;48.626;9.238;2022-12-18T07:40:32;36.83;;;26.60;;
735;SDS011;352;48.626;9.238;2022-12-18T07:43:00;39.72;;;26.98;;
735;SDS011;352;48.626;9.238;2022-12-18T07:45:27;42.17;;;28.00;;
735;SDS011;352;48.626;9.238;2022-12-18T07:47:56;35.60;;;25.98;;
735;SDS011;352;48.626;9.238;2022-12-18T07:50:23;42.13;;;31.83;;
735;SDS011;352;48.626;9.238;2022-12-18T07:52:50;48.15;;;30.80;;
735;SDS011;352;48.626;9.238;2022-12-18T07:55:17;36.33;;;27.10;;
735;SDS011;352;48.626;9.238;2022-12-18T07:57:43;36.63;;;28.42;;
735;SDS011;352;48.626;9.238;2022-12-18T08:00:12;37.75;;;29.08;;
735;SDS011;352;48.626;9.238;2022-12-18T08:02:40;46.17;;;29.92;;
735;SDS011;352;48.626;9.238;2022-12-18T08:05:07;39.28;;;28.45;;
735;SDS011;352;48.626;9.238;2022-12-18T08:07:34;35.63;;;26.85;;
735;SDS011;352;48.626;9.238;2022-12-18T08:10:01;39.03;;;26.20;;
735;SDS011;352;48.626;9.238;2022-12-18T08:12:28;40.40;;;26.55;;
735;SDS011;352;48.626;9.238;2022-12-18T08:14:55;38.15;;;26.35;;
735;SDS011;352;48.626;9.238;2022-12-18T08:17:23;31.23;;;25.08;;
735;SDS011;352;48.626;9.238;2022-12-18T08:19:49;32.60;;;25.02;;
735;SDS011;352;48.626;9.238;2022-12-18T08:22:16;38.58;;;27.33;;
735;SDS011;352;48.626;9.238;2022-12-18T08:24:43;36.70;;;26.00;;
735;SDS011;352;48.626;9.238;2022-12-18T08:27:10;37.40;;;26.38;;
735;SDS011;352;48.626;9.238;2022-12-18T08:29:37;34.58;;;25.52;;
735;SDS011;352;48.626;9.238;2022-12-18T08:32:04;37.92;;;26.17;;
735;SDS011;352;48.626;9.238;2022-12-18T08:34:35;44.83;;;28.20;;
735;SDS011;352;48.626;9.238;2022-12-18T08:37:01;42.70;;;30.05;;
735;SDS011;352;48.626;9.238;2022-12-18T08:39:29;41.53;;;29.58;;
735;SDS011;352;48.626;9.238;2022-12-18T08:41:55;43.92;;;31.15;;
735;SDS011;352;48.626;9.238;2022-12-18T08:44:48;43.70;;;30.42;;
735;SDS011;352;48.626;9.238;2022-12-18T08:47:15;43.85;;;29.75;;
735;SDS011;352;48.626;9.238;2022-12-18T08:49:44;40.75;;;29.20;;
735;SDS011;352;48.626;9.238;2022-12-18T08:52:10;39.50;;;28.63;;
735;SDS011;352;48.626;9.238;2022-12-18T08:54:41;38.25;;;26.92;;
735;SDS011;352;48.626;9.238;2022-12-18T08:57:07;34.33;;;25.98;;
735;SDS011;352;48.626;9.238;2022-12-18T08:59:34;34.88;;;26.17;;
735;SDS011;352;48.626;9.238;2022-12-18T09:02:01;41.92;;;30.20;;
735;SDS011;352;48.626;9.238;2022-12-18T09:04:28;48.53;;;31.40;;
735;SDS011;352;48.626;9.238;2022-12-18T09:06:56;43.85;;;31.35;;
735;SDS011;352;48.626;9.238;2022-12-18T09:09:24;43.90;;;29.75;;
735;SDS011;352;48.626;9.238;2022-12-18T09:11:50;42.58;;;31.50;;
735;SDS011;352;48.626;9.238;2022-12-18T09:14:17;45.35;;;30.77;;
735;SDS011;352;48.626;9.238;2022-12-18T09:16:44;40.88;;;30.42;;
735;SDS011;352;48.626;9.238;2022-12-18T09:19:11;40.15;;;29.20;;
735;SDS011;352;48.626;9.238;2022-12-18T09:21:37;42.83;;;28.27;;
735;SDS011;352;48.626;9.238;2022-12-18T09:24:06;43.58;;;29.42;;
735;SDS011;352;48.626;9.238;2022-12-18T09:26:37;42.35;;;30.42;;
735;SDS011;352;48.626;9.238;2022-12-18T09:29:04;38.53;;;30.20;;
735;SDS011;352;48.626;9.238;2022-12-18T09:31:32;45.72;;;31.90;;
735;SDS011;352;48.626;9.238;2022-12-18T09:33:59;42.80;;;33.30;;
735;SDS011;352;48.626;9.238;2022-12-18T09:36:26;41.78;;;32.60;;
735;SDS011;352;48.626;9.238;2022-12-18T09:38:53;48.35;;;33.72;;
735;SDS011;352;48.626;9.238;2022-12-18T09:41:37;45.13;;;31.85;;
735;SDS011;352;48.626;9.238;2022-12-18T09:44:17;41.40;;;29.52;;
735;SDS011;352;48.626;9.238;2022-12-18T09:46:52;43.30;;;31.83;;
735;SDS011;352;48.626;9.238;2022-12-18T09:49:25;43.78;;;31.85;;
735;SDS011;352;48.626;9.238;2022-12-18T09:51:55;43.75;;;31.48;;
735;SDS011;352;48.626;9.238;2022-12-18T09:54:26;47.72;;;32.95;;
735;SDS011;352;48.626;9.238;2022-12-18T09:57:00;40.60;;;29.80;;
735;SDS011;352;48.626;9.238;2022-12-18T09:59:37;43.70;;;29.95;;
735;SDS011;352;48.626;9.238;2022-12-18T10:02:12;41.90;;;31.75;;
735;SDS011;352;48.626;9.238;2022-12-18T10:04:41;47.42;;;32.60;;
735;SDS011;352;48.626;9.238;2022-12-18T10:07:09;42.67;;;31.42;;
735;SDS011;352;48.626;9.238;2022-12-18T10:09:44;50.25;;;34.45;;
735;SDS011;352;48.626;9.238;2022-12-18T10:12:20;42.20;;;32.00;;
735;SDS011;352;48.626;9.238;2022-12-18T10:14:53;45.03;;;31.17;;
735;SDS011;352;48.626;9.238;2022-12-18T10:17:26;46.03;;;32.65;;
735;SDS011;352;48.626;9.238;2022-12-18T10:19:59;51.38;;;33.10;;
735;SDS011;352;48.626;9.238;2022-12-18T10:22:32;45.65;;;30.60;;
735;SDS011;352;48.626;9.238;2022-12-18T10:25:15;46.13;;;30.17;;
735;SDS011;352;48.626;9.238;2022-12-18T10:27:48;53.03;;;31.23;;
735;SDS011;352;48.626;9.238;2022-12-18T10:30:19;50.58;;;31.38;;
735;SDS011;352;48.626;9.238;2022-12-18T10:32:48;47.08;;;31.00;;
735;SDS011;352;48.626;9.238;2022-12-18T10:35:16;47.50;;;32.65;;
735;SDS011;352;48.626;9.238;2022-12-18T10:38:02;48.03;;;31.42;;
735;SDS011;352;48.626;9.238;2022-12-18T10:40:31;52.20;;;33.47;;
735;SDS011;352;48.626;9.238;2022-12-18T10:43:04;56.08;;;33.88;;
735;SDS011;352;48.626;9.238;2022-12-18T10:45:36;47.80;;;32.60;;
735;SDS011;352;48.626;9.238;2022-12-18T10:48:04;47.47;;;32.50;;
735;SDS011;352;48.626;9.238;2022-12-18T10:50:45;46.08;;;32.30;;
735;SDS011;352;48.626;9.238;2022-12-18T10:53:14;46.03;;;32.97;;
735;SDS011;352;48.626;9.238;2022-12-18T10:55:46;51.13;;;32.83;;
735;SDS011;352;48.626;9.238;2022-12-18T10:58:19;54.65;;;34.63;;
735;SDS011;352;48.626;9.238;2022-12-18T11:01:01;56.15;;;35.53;;
735;SDS011;352;48.626;9.238;2022-12-18T11:03:34;52.13;;;34.15;;
735;SDS011;352;48.626;9.238;2022-12-18T11:06:03;48.83;;;34.42;;
735;SDS011;352;48.626;9.238;2022-12-18T11:08:32;55.00;;;32.33;;
735;SDS011;352;48.626;9.238;2022-12-18T11:10:59;52.70;;;35.05;;
735;SDS011;352;48.626;9.238;2022-12-18T11:13:27;51.22;;;33.40;;
735;SDS011;352;48.626;9.238;2022-12-18T11:15:56;49.05;;;32.92;;
735;SDS011;352;48.626;9.238;2022-12-18T11:18:25;54.58;;;31.67;;
735;SDS011;352;48.626;9.238;2022-12-18T11:20:54;50.42;;;32.92;;
735;SDS011;352;48.626;9.238;2022-12-18T11:23:23;48.17;;;32.25;;
735;SDS011;352;48.626;9.238;2022-12-18T11:25:51;47.00;;;32.08;;
735;SDS011;352;48.626;9.238;2022-12-18T11:31:17;55.95;;;31.95;;
735;SDS011;352;48.626;9.238;2022-12-18T11:33:46;46.05;;;30.05;;
735;SDS011;352;48.626;9.238;2022-12-18T11:36:22;55.38;;;31.95;;
735;SDS011;352;48.626;9.238;2022-12-18T11:38:49;59.00;;;36.53;;
735;SDS011;352;48.626;9.238;2022-12-18T11:41:21;64.47;;;36.75;;
735;SDS011;352;48.626;9.238;2022-12-18T11:44:14;57.55;;;37.70;;
735;SDS011;352;48.626;9.238;2022-12-18T11:46:46;59.97;;;39.85;;
735;SDS011;352;48.626;9.238;2022-12-18T11:49:19;59.45;;;37.33;;
735;SDS011;352;48.626;9.238;2022-12-18T11:51:49;63.28;;;39.72;;
735;SDS011;352;48.626;9.238;2022-12-18T11:54:21;53.00;;;38.53;;
735;SDS011;352;48.626;9.238;2022-12-18T11:56:49;54.03;;;35.88;;
735;SDS011;352;48.626;9.238;2022-12-18T11:59:23;56.92;;;36.20;;
735;SDS011;352;48.626;9.238;2022-12-18T12:01:59;47.42;;;31.88;;
735;SDS011;352;48.626;9.238;2022-12-18T12:04:47;51.67;;;32.50;;
735;SDS011;352;48.626;9.238;2022-12-18T12:07:23;48.85;;;28.40;;
735;SDS011;352;48.626;9.238;2022-12-18T12:10:00;46.75;;;30.52;;
735;SDS011;352;48.626;9.238;2022-12-18T12:12:36;51.33;;;29.67;;
735;SDS011;352;48.626;9.238;2022-12-18T12:15:17;37.60;;;25.55;;
735;SDS011;352;48.626;9.238;2022-12-18T12:17:53;41.15;;;25.02;;
735;SDS011;352;48.626;9.238;2022-12-18T12:20:29;46.50;;;29.40;;
735;SDS011;352;48.626;9.238;2022-12-18T12:23:06;47.50;;;30.10;;
735;SDS011;352;48.626;9.238;2022-12-18T12:25:44;61.38;;;37.58;;
735;SDS011;352;48.626;9.238;2022-12-18T12:28:17;58.63;;;36.92;;
735;SDS011;352;48.626;9.238;2022-12-18T12:30:58;59.38;;;36.60;;
735;SDS011;352;48.626;9.238;2022-12-18T12:33:36;50.10;;;28.88;;
735;SDS011;352;48.626;9.238;2022-12-18T12:36:14;43.25;;;28.45;;
735;SDS011;352;48.626;9.238;2022-12-18T12:38:49;42.65;;;25.40;;
735;SDS011;352;48.626;9.238;2022-12-18T12:41:22;45.13;;;24.25;;
735;SDS011;352;48.626;9.238;2022-12-18T12:44:21;35.80;;;21.42;;
735;SDS011;352;48.626;9.238;2022-12-18T12:46:54;37.25;;;21.83;;
735;SDS011;352;48.626;9.238;2022-12-18T12:49:27;36.63;;;24.02;;
735;SDS011;352;48.626;9.238;2022-12-18T12:51:59;40.88;;;25.15;;
735;SDS011;352;48.626;9.238;2022-12-18T12:54:32;41.95;;;26.80;;
735;SDS011;352;48.626;9.238;2022-12-18T12:57:02;37.35;;;22.92;;
735;SDS011;352;48.626;9.238;2022-12-18T12:59:37;36.28;;;20.27;;
735;SDS011;352;48.626;9.238;2022-12-18T13:02:14;39.10;;;20.92;;
735;SDS011;352;48.626;9.238;2022-12-18T13:04:49;36.92;;;22.50;;
735;SDS011;352;48.626;9.238;2022-12-18T13:07:23;43.83;;;27.17;;
735;SDS011;352;48.626;9.238;2022-12-18T13:12:54;40.20;;;26.80;;
735;SDS011;352;48.626;9.238;2022-12-18T13:15:21;43.10;;;27.55;;
735;SDS011;352;48.626;9.238;2022-12-18T13:17:50;43.90;;;28.63;;
735;SDS011;352;48.626;9.238;2022-12-18T13:20:32;48.50;;;29.95;;
735;SDS011;352;48.626;9.238;2022-12-18T13:23:01;55.45;;;30.92;;
735;SDS011;352;48.626;9.238;2022-12-18T13:25:54;50.67;;;30.20;;
735;SDS011;352;48.626;9.238;2022-12-18T13:28:22;49.63;;;25.27;;
735;SDS011;352;48.626;9.238;2022-12-18T13:31:10;42.45;;;26.45;;
735;SDS011;352;48.626;9.238;2022-12-18T13:33:44;43.50;;;23.73;;
735;SDS011;352;48.626;9.238;2022-12-18T13:36:13;37.00;;;21.75;;
735;SDS011;352;48.626;9.238;2022-12-18T13:38:42;36.60;;;21.25;;
735;SDS011;352;48.626;9.238;2022-12-18T13:41:23;40.05;;;23.80;;
735;SDS011;352;48.626;9.238;2022-12-18T13:43:51;52.80;;;34.20;;
735;SDS011;352;48.626;9.238;2022-12-18T13:46:20;53.95;;;32.88;;
735;SDS011;352;48.626;9.238;2022-12-18T13:48:52;51.17;;;34.13;;
735;SDS011;352;48.626;9.238;2022-12-18T13:51:22;52.25;;;33.40;;
735;SDS011;352;48.626;9.238;2022-12-18T13:53:51;48.67;;;32.00;;
735;SDS011;352;48.626;9.238;2022-12-18T13:56:22;45.55;;;30.40;;
735;SDS011;352;48.626;9.238;2022-12-18T13:59:10;42.30;;;28.80;;
735;SDS011;352;48.626;9.238;2022-12-18T14:01:46;49.08;;;30.10;;
735;SDS011;352;48.626;9.238;2022-12-18T14:04:21;47.05;;;28.83;;
735;SDS011;352;48.626;9.238;2022-12-18T14:06:51;54.67;;;31.08;;
735;SDS011;352;48.626;9.238;2022-12-18T14:09:21;51.95;;;30.60;;
735;SDS011;352;48.626;9.238;2022-12-18T14:11:51;45.78;;;29.40;;
735;SDS011;352;48.626;9.238;2022-12-18T14:14:40;47.38;;;29.70;;
735;SDS011;352;48.626;9.238;2022-12-18T14:17:09;47.97;;;30.08;;
735;SDS011;352;48.626;9.238;2022-12-18T14:19:38;53.78;;;31.08;;
735;SDS011;352;48.626;9.238;2022-12-18T14:22:11;52.00;;;31.02;;
735;SDS011;352;48.626;9.238;2022-12-18T14:24:42;49.63;;;30.15;;
735;SDS011;352;48.626;9.238;2022-12-18T14:27:20;52.55;;;31.17;;
735;SDS011;352;48.626;9.238;2022-12-18T14:29:48;58.53;;;32.75;;
735;SDS011;352;48.626;9.238;2022-12-18T14:32:16;53.03;;;32.65;;
735;SDS011;352;48.626;9.238;2022-12-18T14:34:47;52.00;;;32.60;;
735;SDS011;352;48.626;9.238;2022-12-18T14:37:16;54.72;;;35.67;;
735;SDS011;352;48.626;9.238;2022-12-18T14:39:54;58.97;;;34.65;;
735;SDS011;352;48.626;9.238;2022-12-18T14:42:23;49.00;;;29.60;;
735;SDS011;352;48.626;9.238;2022-12-18T14:47:58;45.28;;;29.17;;
735;SDS011;352;48.626;9.238;2022-12-18T14:50:27;49.20;;;33.00;;
735;SDS011;352;48.626;9.238;2022-12-18T14:52:54;52.17;;;30.73;;
735;SDS011;352;48.626;9.238;2022-12-18T14:55:21;47.83;;;26.80;;
735;SDS011;352;48.626;9.238;2022-12-18T14:57:49;52.83;;;29.15;;
735;SDS011;352;48.626;9.238;2022-12-18T15:00:19;55.15;;;32.75;;
735;SDS011;352;48.626;9.238;2022-12-18T15:02:48;51.25;;;32.20;;
735;SDS011;352;48.626;9.238;2022-12-18T15:05:19;50.17;;;30.05;;
735;SDS011;352;48.626;9.238;2022-12-18T15:07:52;50.60;;;29.25;;
735;SDS011;352;48.626;9.238;2022-12-18T15:10:21;45.53;;;27.52;;
735;SDS011;352;48.626;9.238;2022-12-18T15:12:50;43.65;;;27.63;;
735;SDS011;352;48.626;9.238;2022-12-18T15:15:46;44.28;;;27.88;;
735;SDS011;352;48.626;9.238;2022-12-18T15:18:14;40.83;;;26.00;;
735;SDS011;352;48.626;9.238;2022-12-18T15:20:43;44.47;;;26.42;;
735;SDS011;352;48.626;9.238;2022-12-18T15:23:16;47.22;;;27.13;;
735;SDS011;352;48.626;9.238;2022-12-18T15:25:47;43.17;;;26.10;;
735;SDS011;352;48.626;9.238;2022-12-18T15:28:19;46.45;;;26.33;;
735;SDS011;352;48.626;9.238;2022-12-18T15:31:05;47.58;;;27.05;;
735;SDS011;352;48.626;9.238;2022-12-18T15:34:00;47.13;;;27.85;;
735;SDS011;352;48.626;9.238;2022-12-18T15:36:39;58.50;;;36.75;;
735;SDS011;352;48.626;9.238;2022-12-18T15:39:09;61.33;;;39.30;;
735;SDS011;352;48.626;9.238;2022-12-18T15:41:37;67.15;;;41.75;;
735;SDS011;352;48.626;9.238;2022-12-18T15:44:15;68.53;;;42.42;;